Time;durP1;ratioP1;P1;durP2;ratioP2;P2;SDS_P1;SDS_P2;PMS_P1;PMS_P2;Temp;Humidity;BMP_temperature;BMP_pressure;BME280_temperature;BME280_humidity;BME280_pressure;Samples;Min_cycle;Max_cycle;Signal;HPM_P1;HPM_P2
2021/11/28 00:01:42;;;;;;;15.20;9.07;;;;;;;3.66;65.80;98150.63;5034714;28;20062;-61
2021/11/28 00:04:10;;;;;;;15.15;8.98;;;;;;;3.61;65.82;98154.34;5052386;28;20064;-60
2021/11/28 00:06:40;;;;;;;12.30;8.10;;;;;;;3.58;65.72;98149.47;5046028;28;20045;-61
2021/11/28 00:12:09;;;;;;;13.05;8.27;;;;;;;3.43;66.26;98163.75;5041054;28;20049;-62
2021/11/28 00:14:36;;;;;;;18.00;10.20;;;;;;;3.41;66.35;98155.81;5040406;28;20422;-62
2021/11/28 00:17:04;;;;;;;15.82;9.57;;;;;;;3.42;66.15;98156.59;5038431;28;20079;-62
2021/11/28 00:19:32;;;;;;;14.20;9.77;;;;;;;3.39;66.09;98143.50;5035285;28;20549;-62
2021/11/28 00:22:01;;;;;;;14.77;9.85;;;;;;;3.38;66.26;98144.63;5032804;28;20061;-62
2021/11/28 00:24:29;;;;;;;14.40;9.25;;;;;;;3.33;66.38;98142.84;5062128;28;20397;-62
2021/11/28 00:26:56;;;;;;;16.00;10.27;;;;;;;3.32;66.23;98144.00;5069983;28;20375;-62
2021/11/28 00:29:23;;;;;;;12.43;8.30;;;;;;;3.28;66.94;98139.47;5071901;28;20509;-62
2021/11/28 00:31:51;;;;;;;13.00;7.43;;;;;;;3.25;67.11;98144.50;5071872;28;20417;-61
2021/11/28 00:34:18;;;;;;;15.05;8.95;;;;;;;3.20;66.83;98146.59;5071970;28;20063;-61
2021/11/28 00:36:46;;;;;;;13.50;9.65;;;;;;;3.19;67.21;98148.53;5072198;28;20049;-60
2021/11/28 00:39:15;;;;;;;16.83;10.15;;;;;;;3.15;67.31;98147.56;5074401;28;20064;-61
2021/11/28 00:41:43;;;;;;;16.17;9.17;;;;;;;3.07;67.16;98153.03;5075763;28;20057;-61
2021/11/28 00:44:10;;;;;;;13.00;8.27;;;;;;;3.15;67.82;98157.72;5058480;28;20057;-61
2021/11/28 00:46:37;;;;;;;11.73;7.70;;;;;;;3.18;67.40;98144.16;5055663;28;20060;-61
2021/11/28 00:49:12;;;;;;;12.38;8.02;;;;;;;3.26;67.82;98159.06;5055967;28;20060;-60
2021/11/28 00:51:49;;;;;;;13.38;7.82;;;;;;;3.33;67.82;98159.38;5055561;28;20064;-60
2021/11/28 00:54:18;;;;;;;11.00;7.85;;;;;;;3.41;67.41;98155.00;5072239;28;20448;-60
2021/11/28 00:56:46;;;;;;;13.43;7.72;;;;;;;3.45;67.08;98167.00;5075329;28;20056;-60
2021/11/28 00:59:13;;;;;;;13.52;7.93;;;;;;;3.52;67.21;98150.78;5075549;28;20060;-60
2021/11/28 01:01:41;;;;;;;9.77;6.63;;;;;;;3.56;67.53;98154.50;5075696;28;20056;-60
2021/11/28 01:04:09;;;;;;;12.10;6.63;;;;;;;3.62;67.20;98155.97;5072655;28;20417;-60
2021/11/28 01:06:37;;;;;;;11.52;6.40;;;;;;;3.66;66.83;98156.94;5055768;28;20505;-61
2021/11/28 01:09:06;;;;;;;9.15;6.28;;;;;;;3.76;67.10;98160.47;5060772;28;20399;-61
2021/11/28 01:11:36;;;;;;;12.45;6.20;;;;;;;3.78;66.94;98156.28;5074995;28;20060;-61
2021/11/28 01:14:04;;;;;;;11.32;6.00;;;;;;;3.84;66.90;98162.41;5067371;28;20063;-61
2021/11/28 01:16:34;;;;;;;12.00;7.50;;;;;;;3.88;66.48;98160.59;5055347;28;20053;-60
2021/11/28 01:19:02;;;;;;;11.57;6.80;;;;;;;3.78;67.04;98158.19;5055389;28;20518;-61
2021/11/28 01:21:30;;;;;;;12.70;7.40;;;;;;;3.85;66.47;98161.28;5054861;28;20065;-61
2021/11/28 01:23:57;;;;;;;11.35;7.43;;;;;;;3.84;66.20;98163.22;5072060;28;20071;-61
2021/11/28 01:26:27;;;;;;;13.55;7.13;;;;;;;3.85;65.91;98166.78;5060167;28;20049;-61
2021/11/28 01:28:56;;;;;;;11.98;7.35;;;;;;;3.77;65.95;98175.88;5061056;28;20048;-61
2021/11/28 01:31:24;;;;;;;10.57;6.88;;;;;;;3.72;66.34;98178.81;5075457;28;20413;-60
2021/11/28 01:33:51;;;;;;;12.27;7.32;;;;;;;3.68;66.06;98169.56;5074582;28;20390;-61
2021/11/28 01:36:20;;;;;;;13.10;7.07;;;;;;;3.56;66.50;98179.28;5074893;28;20057;-61
2021/11/28 01:38:47;;;;;;;10.27;7.20;;;;;;;3.52;66.44;98167.28;5073872;28;20063;-61
2021/11/28 01:41:19;;;;;;;10.80;6.90;;;;;;;3.51;65.97;98162.94;5074491;28;20417;-61
2021/11/28 01:43:48;;;;;;;12.73;6.47;;;;;;;3.44;66.21;98170.84;5074964;28;20060;-61
2021/11/28 01:46:18;;;;;;;9.23;6.53;;;;;;;3.33;66.02;98172.31;5073718;28;20068;-61
2021/11/28 01:48:46;;;;;;;11.73;6.80;;;;;;;3.24;65.90;98170.38;5069808;28;20501;-61
2021/11/28 01:51:14;;;;;;;12.20;7.07;;;;;;;3.15;66.37;98177.81;5064834;28;20045;-61
2021/11/28 01:53:41;;;;;;;16.55;8.05;;;;;;;3.08;66.76;98174.72;5074156;28;20049;-61
2021/11/28 01:56:09;;;;;;;13.88;6.97;;;;;;;3.04;67.15;98173.75;5074393;28;20508;-61
2021/11/28 01:58:37;;;;;;;11.57;7.35;;;;;;;3.00;66.77;98181.00;5071475;28;20069;-61
2021/11/28 02:01:08;;;;;;;12.13;6.93;;;;;;;2.95;67.23;98181.19;5054093;28;20390;-61
2021/11/28 02:03:40;;;;;;;12.88;6.70;;;;;;;2.88;66.88;98184.41;5067383;28;20056;-61
2021/11/28 02:06:10;;;;;;;8.63;6.45;;;;;;;2.78;67.40;98192.94;5057678;28;20493;-61
2021/11/28 02:08:38;;;;;;;12.30;6.38;;;;;;;2.68;67.83;98183.03;5071999;28;20057;-61
2021/11/28 02:11:09;;;;;;;10.75;6.28;;;;;;;2.64;67.59;98182.06;5074204;28;20056;-61
2021/11/28 02:13:36;;;;;;;11.77;6.20;;;;;;;2.61;67.80;98185.47;5073774;28;20049;-61
2021/11/28 02:16:04;;;;;;;10.65;6.45;;;;;;;2.59;67.47;98180.28;5073339;28;20421;-61
2021/11/28 02:18:31;;;;;;;10.40;5.72;;;;;;;2.52;67.46;98187.34;5074207;28;20053;-61
2021/11/28 02:21:02;;;;;;;9.48;6.07;;;;;;;2.48;68.16;98180.88;5062008;28;20418;-61
2021/11/28 02:23:30;;;;;;;12.85;5.63;;;;;;;2.44;68.01;98188.94;5072716;28;20060;-61
2021/11/28 02:26:00;;;;;;;7.68;4.85;;;;;;;2.31;68.78;98193.41;5066121;28;20056;-62
2021/11/28 02:28:28;;;;;;;7.45;4.65;;;;;;;2.28;68.16;98191.28;5072886;28;20544;-62
2021/11/28 02:30:58;;;;;;;11.75;5.50;;;;;;;2.20;68.11;98189.31;5074390;28;20049;-61
2021/11/28 02:33:25;;;;;;;;;;;;;;;2.18;68.49;98197.06;5074364;28;20056;-61
2021/11/28 02:35:52;;;;;;;7.75;4.93;;;;;;;2.14;68.04;98199.63;5073006;28;19920;-61
2021/11/28 02:38:21;;;;;;;13.23;6.63;;;;;;;2.11;68.66;98197.50;5059837;28;20406;-62
2021/11/28 02:40:49;;;;;;;12.00;4.88;;;;;;;2.11;68.48;98196.72;5072608;28;20067;-62
2021/11/28 02:43:17;;;;;;;8.13;5.38;;;;;;;2.10;68.34;98195.06;5073532;28;20064;-62
2021/11/28 02:45:47;;;;;;;8.63;5.45;;;;;;;1.98;68.12;98196.47;5055972;28;20057;-62
2021/11/28 02:48:15;;;;;;;;;;;;;;;1.90;68.80;98197.22;5053552;28;20076;-62
2021/11/28 02:50:43;;;;;;;8.45;4.97;;;;;;;1.89;69.17;98194.78;5058381;28;20408;-62
2021/11/28 02:53:12;;;;;;;12.35;6.35;;;;;;;1.90;68.56;98197.22;5073031;28;20414;-62
2021/11/28 02:55:43;;;;;;;8.35;5.40;;;;;;;1.89;69.37;98190.13;5068693;28;20049;-62
2021/11/28 02:58:15;;;;;;;10.68;5.95;;;;;;;1.84;69.46;98195.72;5054203;28;20418;-62
2021/11/28 03:00:46;;;;;;;9.98;5.30;;;;;;;1.82;68.71;98190.53;5058254;28;20056;-62
2021/11/28 03:03:14;;;;;;;10.07;5.32;;;;;;;1.83;69.08;98192.19;5070528;28;20052;-62
2021/11/28 03:05:42;;;;;;;9.38;4.90;;;;;;;1.78;69.24;98196.97;5053416;28;20052;-61
2021/11/28 03:08:09;;;;;;;10.95;5.13;;;;;;;1.75;68.73;98200.34;5053308;28;20057;-61
2021/11/28 03:10:39;;;;;;;9.60;5.03;;;;;;;1.73;69.61;98197.13;5054337;28;20057;-62
2021/11/28 03:13:10;;;;;;;7.65;4.70;;;;;;;1.72;68.75;98198.22;5072455;28;20052;-62
2021/11/28 03:15:38;;;;;;;8.63;5.18;;;;;;;1.70;69.45;98194.97;5052845;28;20513;-61
2021/11/28 03:18:12;;;;;;;7.40;4.55;;;;;;;1.68;69.55;98198.06;5052644;28;20053;-62
2021/11/28 03:20:40;;;;;;;9.45;5.18;;;;;;;1.64;68.74;98205.28;5052666;28;20052;-62
2021/11/28 03:23:09;;;;;;;13.48;6.00;;;;;;;1.63;69.60;98204.44;5056106;28;20064;-62
2021/11/28 03:25:36;;;;;;;10.27;6.53;;;;;;;1.59;69.32;98197.97;5065458;28;20059;-62
2021/11/28 03:28:04;;;;;;;9.73;6.15;;;;;;;1.55;69.43;98199.72;5064544;28;20048;-62
2021/11/28 03:30:34;;;;;;;8.70;5.00;;;;;;;1.51;69.90;98201.47;5072581;28;20063;-62
2021/11/28 03:33:01;;;;;;;9.63;5.03;;;;;;;1.43;69.35;98199.47;5073148;28;20057;-62
2021/11/28 03:35:28;;;;;;;8.48;5.35;;;;;;;1.40;68.94;98206.38;5068583;28;20060;-62
2021/11/28 03:37:56;;;;;;;8.00;5.15;;;;;;;1.40;69.81;98206.38;5064541;28;20052;-62
2021/11/28 03:40:23;;;;;;;7.88;5.03;;;;;;;1.34;69.38;98209.53;5066725;28;20053;-62
2021/11/28 03:42:51;;;;;;;9.60;5.38;;;;;;;1.33;69.47;98208.75;5065040;28;20057;-61
2021/11/28 03:45:19;;;;;;;9.35;4.55;;;;;;;1.25;69.54;98222.38;5072622;28;20063;-62
2021/11/28 03:47:48;;;;;;;9.63;4.55;;;;;;;1.18;69.58;98218.13;5072410;28;20059;-62
2021/11/28 03:50:16;;;;;;;8.63;4.80;;;;;;;1.15;69.41;98218.72;5069584;28;20053;-61
2021/11/28 03:52:43;;;;;;;6.97;4.78;;;;;;;1.10;69.52;98221.59;5072543;28;20056;-62
2021/11/28 03:55:13;;;;;;;6.50;4.93;;;;;;;1.04;70.22;98224.75;5072251;28;20385;-62
2021/11/28 03:57:40;;;;;;;9.90;4.70;;;;;;;1.04;70.11;98228.31;5069775;28;20052;-62
2021/11/28 04:00:11;;;;;;;9.23;5.53;;;;;;;1.05;69.86;98227.19;5070086;28;20060;-62
2021/11/28 04:02:38;;;;;;;9.13;4.97;;;;;;;1.03;70.00;98229.44;5059613;28;20067;-62
2021/11/28 04:05:09;;;;;;;8.77;4.72;;;;;;;0.94;70.23;98226.56;5056376;28;20056;-62
2021/11/28 04:07:36;;;;;;;7.32;4.22;;;;;;;0.86;70.52;98229.22;5051944;28;20524;-62
2021/11/28 04:10:05;;;;;;;8.52;4.88;;;;;;;0.89;70.62;98234.13;5052425;28;20387;-62
2021/11/28 04:12:32;;;;;;;9.88;4.85;;;;;;;0.91;70.62;98232.69;5067899;28;20521;-62
2021/11/28 04:15:00;;;;;;;8.65;5.13;;;;;;;0.92;71.21;98228.81;5066425;28;20057;-62
2021/11/28 04:17:28;;;;;;;8.35;4.95;;;;;;;0.94;70.86;98234.00;5071762;28;20426;-62
2021/11/28 04:19:57;;;;;;;11.05;5.65;;;;;;;0.92;70.88;98238.97;5072096;28;20059;-62
2021/11/28 04:22:26;;;;;;;8.43;4.45;;;;;;;0.94;71.37;98237.53;5070953;28;20059;-62
2021/11/28 04:24:55;;;;;;;6.57;4.70;;;;;;;1.03;71.49;98243.13;5051831;28;20053;-62
2021/11/28 04:27:23;;;;;;;8.30;4.63;;;;;;;1.07;71.69;98254.28;5067120;28;20536;-62
2021/11/28 04:29:50;;;;;;;11.35;5.15;;;;;;;1.16;70.82;98255.19;5071772;28;20490;-62
2021/11/28 04:32:18;;;;;;;6.97;5.40;;;;;;;1.20;71.39;98251.53;5071884;28;20104;-62
2021/11/28 04:34:46;;;;;;;9.93;5.43;;;;;;;1.27;71.27;98258.53;5072385;28;20052;-62
2021/11/28 04:37:15;;;;;;;10.88;6.22;;;;;;;1.39;71.22;98253.31;5056808;28;20057;-62
2021/11/28 04:39:44;;;;;;;8.98;6.13;;;;;;;1.46;71.15;98250.97;5051588;28;20064;-62
2021/11/28 04:42:11;;;;;;;8.25;4.95;;;;;;;1.50;72.06;98253.91;5067530;28;20053;-62
2021/11/28 04:44:39;;;;;;;8.98;5.70;;;;;;;1.60;71.66;98251.75;5071859;28;20056;-62
2021/11/28 04:47:06;;;;;;;9.45;5.97;;;;;;;1.67;71.24;98253.25;5058428;28;20049;-62
2021/11/28 04:49:33;;;;;;;9.48;5.55;;;;;;;1.78;72.12;98260.91;5060466;28;20053;-62
2021/11/28 04:52:00;;;;;;;8.05;5.57;;;;;;;1.84;72.03;98258.84;5051800;28;20084;-62
2021/11/28 04:54:28;;;;;;;9.73;5.63;;;;;;;1.89;71.11;98256.00;5052000;28;20406;-62
2021/11/28 04:56:57;;;;;;;8.27;4.72;;;;;;;1.98;71.05;98256.06;5058388;28;20052;-61
2021/11/28 04:59:24;;;;;;;9.55;5.80;;;;;;;2.06;71.11;98260.81;5053338;28;20422;-62
2021/11/28 05:01:52;;;;;;;7.45;4.72;;;;;;;2.07;71.05;98261.59;5062219;28;20056;-62
2021/11/28 05:04:19;;;;;;;10.23;4.90;;;;;;;2.16;71.32;98254.22;5070697;28;20060;-62
2021/11/28 05:06:47;;;;;;;8.35;5.55;;;;;;;2.22;70.86;98262.00;5071396;28;20057;-62
2021/11/28 05:09:14;;;;;;;8.30;5.30;;;;;;;2.27;69.78;98263.00;5069038;28;20390;-62
2021/11/28 05:11:42;;;;;;;8.15;4.60;;;;;;;2.27;70.31;98261.09;5065598;28;20060;-62
2021/11/28 05:14:11;;;;;;;7.13;4.38;;;;;;;2.36;69.89;98264.69;5071410;28;20060;-62
2021/11/28 05:16:39;;;;;;;6.53;4.32;;;;;;;2.39;70.26;98272.31;5071663;28;20064;-62
2021/11/28 05:19:06;;;;;;;7.78;4.05;;;;;;;2.44;69.83;98263.94;5064042;28;20160;-62
2021/11/28 05:21:34;;;;;;;7.72;3.85;;;;;;;2.50;69.36;98272.03;5054196;28;20521;-62
2021/11/28 05:24:01;;;;;;;6.78;4.30;;;;;;;2.50;68.83;98274.78;5051684;28;20060;-62
2021/11/28 05:26:29;;;;;;;6.53;3.92;;;;;;;2.54;68.95;98270.28;5054598;28;20053;-62
2021/11/28 05:28:56;;;;;;;8.15;4.57;;;;;;;2.53;69.35;98263.97;5054976;28;20423;-62
2021/11/28 05:31:25;;;;;;;7.85;3.70;;;;;;;2.63;68.49;98274.69;5054329;28;20486;-62
2021/11/28 05:33:54;;;;;;;5.65;4.20;;;;;;;2.69;68.74;98280.88;5054317;28;20064;-62
2021/11/28 05:36:23;;;;;;;5.10;3.53;;;;;;;2.75;68.85;98279.63;5052727;28;20057;-61
2021/11/28 05:38:50;;;;;;;6.43;4.22;;;;;;;2.76;68.30;98283.16;5054945;28;20060;-62
2021/11/28 05:41:18;;;;;;;7.72;3.95;;;;;;;2.75;68.29;98279.63;5041018;28;20062;-62
2021/11/28 05:43:47;;;;;;;5.93;4.05;;;;;;;2.77;68.85;98291.09;5049955;28;20053;-62
2021/11/28 05:46:15;;;;;;;8.35;4.60;;;;;;;2.84;68.83;98290.63;5054330;28;20064;-62
2021/11/28 05:48:44;;;;;;;6.07;4.40;;;;;;;2.88;68.57;98291.63;5043776;28;20050;-61
2021/11/28 05:51:11;;;;;;;8.10;4.10;;;;;;;2.96;67.79;98295.53;5035834;28;20057;-62
2021/11/28 05:53:39;;;;;;;7.63;4.20;;;;;;;2.94;68.31;98295.03;5034547;28;20057;-62
2021/11/28 05:56:07;;;;;;;6.13;4.15;;;;;;;2.97;67.99;98294.41;5036651;28;20084;-61
2021/11/28 05:58:34;;;;;;;7.57;4.40;;;;;;;2.95;67.59;98293.91;5036329;28;20053;-62
2021/11/28 06:01:02;;;;;;;6.70;4.20;;;;;;;2.99;67.92;98294.91;5034537;28;20057;-62
2021/11/28 06:03:29;;;;;;;5.57;4.15;;;;;;;3.01;68.27;98298.16;5043888;28;20060;-62
2021/11/28 06:05:58;;;;;;;8.88;4.82;;;;;;;3.02;68.50;98294.25;5053977;28;20067;-62
2021/11/28 06:08:25;;;;;;;9.27;4.97;;;;;;;3.00;68.25;98304.75;5053874;28;20064;-62
2021/11/28 06:10:52;;;;;;;7.65;4.55;;;;;;;3.01;68.47;98295.41;5057166;28;20071;-61
2021/11/28 06:13:20;;;;;;;5.68;4.30;;;;;;;3.14;67.57;98294.47;5072267;28;20056;-61
2021/11/28 06:15:47;;;;;;;6.40;4.60;;;;;;;3.17;67.45;98293.84;5053701;28;20053;-62
2021/11/28 06:18:14;;;;;;;7.30;4.47;;;;;;;3.20;67.72;98301.44;5048940;28;20057;-62
2021/11/28 06:20:42;;;;;;;5.68;4.13;;;;;;;3.14;68.44;98301.91;5052945;28;20426;-62
2021/11/28 06:23:11;;;;;;;6.72;4.72;;;;;;;3.25;67.90;98305.97;5053144;28;20101;-61
2021/11/28 06:25:38;;;;;;;6.82;4.15;;;;;;;3.30;67.62;98305.00;5062168;28;20061;-62
2021/11/28 06:28:05;;;;;;;7.65;4.93;;;;;;;3.19;67.48;98305.34;5073833;28;20052;-62
2021/11/28 06:30:36;;;;;;;7.55;4.18;;;;;;;3.20;67.86;98312.44;5073342;28;20064;-62
2021/11/28 06:33:03;;;;;;;6.35;4.78;;;;;;;3.28;67.99;98308.09;5073935;28;20056;-62
2021/11/28 06:35:31;;;;;;;6.43;4.32;;;;;;;3.34;67.59;98314.25;5059412;28;20056;-62
2021/11/28 06:37:58;;;;;;;7.10;4.63;;;;;;;3.36;67.66;98318.31;5063597;28;20066;-62
2021/11/28 06:40:27;;;;;;;6.70;5.05;;;;;;;3.36;67.69;98320.25;5053479;28;20057;-62
2021/11/28 06:42:55;;;;;;;7.43;5.13;;;;;;;3.35;67.42;98318.63;5054101;28;20053;-62
2021/11/28 06:45:22;;;;;;;9.80;5.38;;;;;;;3.37;67.29;98324.63;5054186;28;20064;-62
2021/11/28 06:47:50;;;;;;;8.82;6.00;;;;;;;3.35;67.05;98326.91;5060699;28;20055;-62
2021/11/28 06:50:18;;;;;;;8.65;5.72;;;;;;;3.34;67.01;98326.09;5070710;28;20057;-62
2021/11/28 06:52:46;;;;;;;8.55;5.10;;;;;;;3.39;67.12;98331.44;5053536;28;20239;-62
2021/11/28 06:55:14;;;;;;;7.50;5.50;;;;;;;3.39;66.92;98330.63;5053168;28;20053;-62
2021/11/28 06:57:43;;;;;;;8.63;5.22;;;;;;;3.43;66.77;98326.91;5053506;28;20057;-62
2021/11/28 07:00:17;;;;;;;7.95;5.78;;;;;;;3.45;66.94;98329.34;5064391;28;20135;-63
2021/11/28 07:02:44;;;;;;;7.95;5.78;;;;;;;3.36;66.94;98336.75;5052963;28;20064;-63
2021/11/28 07:05:11;;;;;;;7.95;6.07;;;;;;;3.37;67.16;98341.16;5065439;28;20064;-63
2021/11/28 07:07:38;;;;;;;8.65;5.60;;;;;;;3.39;67.29;98344.38;5059066;28;20049;-64
2021/11/28 07:10:07;;;;;;;8.02;5.38;;;;;;;3.43;67.02;98343.41;5052882;28;20418;-63
2021/11/28 07:12:34;;;;;;;9.70;5.93;;;;;;;3.43;66.87;98337.91;5069314;28;20052;-63
2021/11/28 07:15:04;;;;;;;8.15;5.35;;;;;;;3.39;67.44;98350.69;5070230;28;20056;-63
2021/11/28 07:17:31;;;;;;;8.27;5.60;;;;;;;3.35;66.92;98346.16;5064376;28;20064;-63
2021/11/28 07:19:58;;;;;;;7.32;5.47;;;;;;;3.45;67.66;98351.38;5072422;28;20056;-63
2021/11/28 07:22:26;;;;;;;8.65;5.90;;;;;;;3.51;67.42;98361.09;5062584;28;20061;-63
2021/11/28 07:24:53;;;;;;;7.63;5.53;;;;;;;3.52;66.97;98346.19;5054461;28;20057;-63
2021/11/28 07:27:20;;;;;;;7.38;4.88;;;;;;;3.52;67.23;98346.19;5072374;28;20063;-63
2021/11/28 07:29:48;;;;;;;8.10;5.15;;;;;;;3.49;67.59;98346.84;5072038;28;20063;-63
2021/11/28 07:32:17;;;;;;;7.55;5.43;;;;;;;3.56;67.46;98349.13;5072233;28;20061;-63
2021/11/28 07:34:44;;;;;;;7.82;5.28;;;;;;;3.61;67.46;98355.31;5071983;28;20060;-63
2021/11/28 07:37:12;;;;;;;7.38;5.47;;;;;;;3.58;67.35;98355.94;5052806;28;20049;-63
2021/11/28 07:39:39;;;;;;;6.45;4.50;;;;;;;3.70;67.30;98349.81;5052479;28;20057;-63
2021/11/28 07:42:07;;;;;;;7.63;5.07;;;;;;;3.77;67.17;98354.84;5072674;28;20057;-63
2021/11/28 07:44:34;;;;;;;63.22;40.17;;;;;;;3.82;67.41;98360.19;5057519;28;20506;-63
2021/11/28 07:47:02;;;;;;;43.67;31.73;;;;;;;3.83;67.20;98362.63;5067048;28;20059;-64
2021/11/28 07:49:31;;;;;;;33.58;23.48;;;;;;;3.89;66.47;98366.03;5067431;28;20044;-64
2021/11/28 07:51:58;;;;;;;17.15;12.68;;;;;;;3.89;66.47;98359.72;5068144;28;20063;-63
2021/11/28 07:54:25;;;;;;;21.10;15.13;;;;;;;3.93;67.94;98366.22;5072268;28;20056;-63
2021/11/28 07:56:53;;;;;;;13.50;10.07;;;;;;;4.07;68.65;98367.69;5071755;28;20056;-63
2021/11/28 07:59:20;;;;;;;8.93;6.68;;;;;;;4.19;67.85;98368.97;5068247;28;20049;-64
2021/11/28 08:01:47;;;;;;;8.55;6.20;;;;;;;4.16;67.27;98369.59;5067481;28;20060;-63
2021/11/28 08:04:14;;;;;;;8.23;6.50;;;;;;;4.25;66.25;98367.66;5061404;28;20052;-63
2021/11/28 08:06:43;;;;;;;8.65;6.05;;;;;;;4.33;65.61;98366.88;5052306;28;20068;-64
2021/11/28 08:09:11;;;;;;;7.55;5.45;;;;;;;4.38;65.63;98374.94;5068922;28;20053;-64
2021/11/28 08:11:38;;;;;;;9.00;5.45;;;;;;;4.40;65.59;98374.63;5067187;28;20044;-64
2021/11/28 08:14:05;;;;;;;6.95;5.43;;;;;;;4.38;65.19;98382.41;5063921;28;20052;-64
2021/11/28 08:16:33;;;;;;;8.50;5.75;;;;;;;4.37;65.26;98373.34;5060817;28;20517;-64
2021/11/28 08:19:00;;;;;;;7.43;5.78;;;;;;;4.39;65.48;98387.63;5070413;28;20064;-64
2021/11/28 08:21:28;;;;;;;8.30;5.80;;;;;;;4.40;64.98;98389.22;5066724;28;20052;-64
2021/11/28 08:23:58;;;;;;;7.40;5.13;;;;;;;4.45;65.23;98386.31;5048345;28;20052;-64
2021/11/28 08:26:29;;;;;;;6.75;5.00;;;;;;;4.46;65.50;98387.13;5043261;28;20057;-64
2021/11/28 08:28:57;;;;;;;7.13;5.20;;;;;;;4.50;65.46;98390.84;5038779;28;20064;-64
2021/11/28 08:31:25;;;;;;;7.63;5.18;;;;;;;4.51;65.90;98394.41;5046612;28;20045;-65
2021/11/28 08:33:52;;;;;;;12.32;5.55;;;;;;;4.53;65.60;98392.94;5038837;28;20065;-64
2021/11/28 08:36:20;;;;;;;9.52;5.18;;;;;;;4.64;65.54;98393.41;5050863;28;20068;-64
2021/11/28 08:38:48;;;;;;;7.47;5.68;;;;;;;4.72;65.49;98400.88;5067085;28;20057;-64
2021/11/28 08:41:19;;;;;;;8.85;4.95;;;;;;;4.77;65.01;98389.69;5046090;28;20065;-64
2021/11/28 08:43:47;;;;;;;6.65;5.13;;;;;;;4.79;64.86;98395.69;5051523;28;20057;-64
2021/11/28 08:46:15;;;;;;;8.57;4.97;;;;;;;4.80;65.24;98390.97;5045407;28;20405;-64
2021/11/28 08:48:43;;;;;;;10.05;6.40;;;;;;;5.01;65.01;98399.34;5049141;28;20057;-64
2021/11/28 08:51:11;;;;;;;11.65;8.40;;;;;;;5.04;64.66;98394.00;5037108;28;20060;-64
2021/11/28 08:53:38;;;;;;;12.30;9.60;;;;;;;5.02;64.13;98392.72;5050933;28;20053;-62
2021/11/28 08:56:07;;;;;;;12.73;9.23;;;;;;;5.12;63.85;98381.28;5043628;28;20057;-63
2021/11/28 08:58:35;;;;;;;8.95;6.53;;;;;;;5.18;64.02;98385.50;5048947;28;20045;-64
2021/11/28 09:01:06;;;;;;;13.50;9.27;;;;;;;5.21;63.31;98386.81;5053009;28;20061;-64
2021/11/28 09:03:34;;;;;;;13.25;8.93;;;;;;;5.24;63.29;98400.75;5050031;28;20065;-64
2021/11/28 09:06:02;;;;;;;10.68;7.60;;;;;;;5.23;63.39;98387.28;5035156;28;20060;-64
2021/11/28 09:08:29;;;;;;;12.15;8.02;;;;;;;5.27;63.01;98393.75;5035590;28;20065;-64
2021/11/28 09:10:57;;;;;;;11.98;9.27;;;;;;;5.31;63.14;98399.41;5055307;28;20375;-64
2021/11/28 09:13:24;;;;;;;9.07;7.22;;;;;;;5.36;62.58;98413.06;5052949;28;20052;-64
2021/11/28 09:15:53;;;;;;;22.50;16.77;;;;;;;5.31;62.98;98404.94;5034941;28;20068;-64
2021/11/28 09:18:24;;;;;;;23.27;20.17;;;;;;;5.33;63.25;98400.69;5045080;28;20053;-64
2021/11/28 09:20:58;;;;;;;18.73;15.85;;;;;;;5.37;62.81;98409.16;5053351;28;20053;-64
2021/11/28 09:26:10;;;;;;;10.55;7.68;;;;;;;5.44;62.77;98399.22;5061735;28;20056;-64
2021/11/28 09:28:37;;;;;;;9.85;7.80;;;;;;;5.20;63.22;98391.50;5038494;28;20113;-64
2021/11/28 09:31:09;;;;;;;9.40;7.82;;;;;;;5.32;63.33;98398.28;5038185;28;20049;-64
2021/11/28 09:33:37;;;;;;;10.50;7.43;;;;;;;5.50;62.46;98410.88;5035162;28;20060;-63
2021/11/28 09:36:05;;;;;;;14.20;10.68;;;;;;;5.57;62.79;98400.13;5049955;28;20064;-66
2021/11/28 09:38:32;;;;;;;13.20;9.05;;;;;;;5.66;62.08;98400.09;5042451;28;20072;-64
2021/11/28 09:41:04;;;;;;;11.40;8.32;;;;;;;5.58;61.83;98392.66;5050005;28;20532;-64
2021/11/28 09:43:35;;;;;;;13.02;10.18;;;;;;;5.59;62.14;98400.59;5040104;28;20415;-64
2021/11/28 09:46:04;;;;;;;15.00;10.85;;;;;;;5.59;62.87;98405.31;5048686;28;20072;-64
2021/11/28 09:48:35;;;;;;;13.70;9.60;;;;;;;5.66;62.40;98414.69;5049465;28;20426;-64
2021/11/28 09:51:04;;;;;;;16.23;11.02;;;;;;;6.45;61.24;98417.81;5044801;28;20060;-64
2021/11/28 09:53:33;;;;;;;13.73;9.97;;;;;;;7.14;59.88;98417.50;5048267;28;20053;-63
2021/11/28 09:56:01;;;;;;;10.57;9.00;;;;;;;8.00;57.63;98403.69;5036098;28;21043;-64
2021/11/28 09:58:29;;;;;;;9.35;7.03;;;;;;;8.33;55.88;98411.84;5054100;28;20049;-64
2021/11/28 10:00:58;;;;;;;10.52;7.00;;;;;;;8.31;55.23;98411.41;5052497;28;20049;-64
2021/11/28 10:03:26;;;;;;;8.73;6.60;;;;;;;8.38;55.07;98408.84;5051755;28;20056;-64
2021/11/28 10:05:59;;;;;;;9.95;7.47;;;;;;;8.31;54.55;98419.72;5046151;28;20049;-64
2021/11/28 10:08:26;;;;;;;8.25;7.22;;;;;;;8.03;55.72;98409.38;5054587;28;20075;-64
2021/11/28 10:11:24;;;;;;;9.25;7.05;;;;;;;7.84;56.08;98411.94;5056116;28;20053;-64
2021/11/28 10:13:54;;;;;;;9.52;7.43;;;;;;;7.81;55.60;98413.44;5067597;28;20056;-64
2021/11/28 10:16:22;;;;;;;;;;;;;;;7.35;57.35;98422.94;5054005;28;20068;-64
2021/11/28 10:18:49;;;;;;;11.23;7.93;;;;;;;7.40;57.23;98406.94;5052692;28;19920;-64
2021/11/28 10:21:18;;;;;;;10.05;7.60;;;;;;;7.30;57.62;98413.72;5052566;28;20056;-64
2021/11/28 10:24:10;;;;;;;11.32;8.15;;;;;;;6.98;58.57;98417.34;5061180;28;20055;-64
2021/11/28 10:26:51;;;;;;;10.85;7.68;;;;;;;7.01;58.40;98419.41;5046456;28;20068;-64
2021/11/28 10:29:20;;;;;;;10.95;7.20;;;;;;;7.04;58.95;98416.78;5046356;28;20061;-64
2021/11/28 10:31:49;;;;;;;9.25;7.68;;;;;;;7.03;59.09;98414.34;5063926;28;20049;-64
2021/11/28 10:34:21;;;;;;;8.77;7.20;;;;;;;7.14;58.06;98409.19;5054655;28;20057;-64
2021/11/28 10:36:51;;;;;;;11.68;8.90;;;;;;;7.17;58.43;98403.78;5053688;28;20520;-64
2021/11/28 10:39:21;;;;;;;9.13;7.53;;;;;;;7.54;58.05;98409.38;5069589;28;20061;-64
2021/11/28 10:41:58;;;;;;;9.77;7.50;;;;;;;8.68;56.06;98400.22;5067697;28;20048;-64
2021/11/28 10:44:27;;;;;;;12.50;8.13;;;;;;;9.20;54.30;98404.00;5053933;28;20064;-64
2021/11/28 10:46:59;;;;;;;9.77;7.63;;;;;;;11.08;49.63;98394.81;5069471;28;20060;-64
2021/11/28 10:49:27;;;;;;;8.18;7.35;;;;;;;11.15;49.43;98381.03;5054238;28;20459;-65
2021/11/28 10:52:07;;;;;;;10.27;8.02;;;;;;;10.62;50.23;98391.91;5053781;28;20049;-64
2021/11/28 10:54:35;;;;;;;;;;;;;;;10.82;49.23;98391.94;5060290;28;20409;-64
2021/11/28 10:57:16;;;;;;;9.57;7.47;;;;;;;10.70;48.39;98387.31;5053057;28;20297;-64
2021/11/28 10:59:45;;;;;;;10.60;7.80;;;;;;;10.45;49.42;98384.81;5070956;28;20052;-65
2021/11/28 11:02:24;;;;;;;10.05;7.97;;;;;;;10.23;50.13;98386.31;5060899;28;20132;-65
2021/11/28 11:04:53;;;;;;;12.00;8.20;;;;;;;9.98;50.96;98388.50;5045180;28;20152;-65
2021/11/28 11:07:23;;;;;;;10.38;8.07;;;;;;;10.10;50.44;98385.63;5062478;28;20060;-65
2021/11/28 11:09:53;;;;;;;11.93;9.10;;;;;;;10.09;50.94;98392.34;5052536;28;20061;-65
2021/11/28 11:12:23;;;;;;;11.13;8.30;;;;;;;9.98;51.00;98382.94;5052256;28;20053;-65
2021/11/28 11:14:51;;;;;;;;;;;;;;;9.54;51.45;98388.66;5052157;28;20052;-65
2021/11/28 11:17:18;;;;;;;12.57;9.00;;;;;;;9.42;51.83;98383.97;5052651;28;19921;-65
2021/11/28 11:19:49;;;;;;;10.82;9.35;;;;;;;9.41;51.92;98381.53;5036227;28;20072;-61
2021/11/28 11:22:22;;;;;;;11.75;9.38;;;;;;;9.14;53.14;98378.50;5051504;28;20052;-65
2021/11/28 11:24:53;;;;;;;13.55;9.90;;;;;;;9.00;53.25;98383.66;5060776;28;20060;-65
2021/11/28 11:27:23;;;;;;;12.98;8.73;;;;;;;9.05;53.42;98389.78;5069113;28;20057;-65
2021/11/28 11:29:54;;;;;;;12.13;9.60;;;;;;;9.19;53.35;98386.56;5069935;28;20079;-65
2021/11/28 11:32:24;;;;;;;13.63;10.32;;;;;;;9.20;53.61;98385.41;5072642;28;20078;-66
2021/11/28 11:34:55;;;;;;;13.98;10.40;;;;;;;8.82;54.16;98388.72;5073127;28;20498;-66
2021/11/28 11:37:24;;;;;;;13.60;10.40;;;;;;;8.99;53.40;98390.34;5072487;28;20413;-66
2021/11/28 11:39:54;;;;;;;;;;;;;;;8.90;53.68;98388.56;5073128;28;20062;-66
2021/11/28 11:42:24;;;;;;;14.40;10.50;;;;;;;8.85;54.59;98388.81;5072018;28;19927;-65
2021/11/28 11:44:52;;;;;;;16.95;11.73;;;;;;;8.92;54.46;98380.69;5071873;28;20056;-65
2021/11/28 11:47:20;;;;;;;16.83;12.32;;;;;;;8.94;53.67;98383.09;5072568;28;20065;-65
2021/11/28 11:49:48;;;;;;;17.05;11.68;;;;;;;8.90;54.10;98382.19;5072663;28;20059;-66
2021/11/28 11:52:17;;;;;;;17.50;13.30;;;;;;;8.97;54.11;98378.84;5072457;28;20470;-66